Time;durP1;ratioP1;P1;durP2;ratioP2;P2;SDS_P1;SDS_P2;PMS_P1;PMS_P2;Temp;Humidity;BMP_temperature;BMP_pressure;BME280_temperature;BME280_humidity;BME280_pressure;Samples;Min_cycle;Max_cycle;Signal;HPM_P1;HPM_P2
2022/03/07 00:02:07;;;;;;;5.80;3.50;;;;;;;1.22;62.34;102627.50;4937982;29;20031;-52
2022/03/07 00:04:33;;;;;;;4.68;3.63;;;;;;;1.20;62.10;102629.44;4941906;28;20036;-53
2022/03/07 00:06:59;;;;;;;5.78;4.07;;;;;;;1.16;62.48;102628.06;4947050;28;20161;-50
2022/03/07 00:09:25;;;;;;;6.53;4.10;;;;;;;1.14;62.45;102625.56;4945238;28;20117;-52
2022/03/07 00:11:50;;;;;;;5.45;3.85;;;;;;;1.12;62.09;102621.41;4946190;29;20039;-48
2022/03/07 00:14:16;;;;;;;7.63;3.85;;;;;;;1.09;62.38;102630.44;4944284;29;20409;-51
2022/03/07 00:16:42;;;;;;;8.57;4.45;;;;;;;1.05;62.25;102631.66;4946177;28;20027;-51
2022/03/07 00:19:07;;;;;;;5.97;3.60;;;;;;;1.04;62.49;102627.38;4945181;29;20027;-51
2022/03/07 00:21:34;;;;;;;5.78;3.90;;;;;;;1.02;62.00;102633.75;4947111;28;20027;-55
2022/03/07 00:23:59;;;;;;;8.57;4.07;;;;;;;0.98;62.39;102637.66;4947361;29;20054;-49
2022/03/07 00:26:25;;;;;;;5.93;3.58;;;;;;;0.93;62.60;102632.81;4941652;28;20151;-55
2022/03/07 00:28:51;;;;;;;7.00;4.45;;;;;;;0.92;62.69;102630.31;4941920;29;20453;-50
2022/03/07 00:31:19;;;;;;;6.03;3.90;;;;;;;0.90;62.57;102633.09;4940901;29;20390;-50
2022/03/07 00:33:45;;;;;;;10.00;3.90;;;;;;;0.90;62.54;102630.44;4940637;28;20043;-48
2022/03/07 00:36:10;;;;;;;6.45;3.63;;;;;;;0.87;62.78;102628.88;4947389;28;20027;-53
2022/03/07 00:38:36;;;;;;;6.47;3.72;;;;;;;0.81;62.67;102628.63;4946845;28;20200;-53
2022/03/07 00:41:02;;;;;;;4.72;3.65;;;;;;;0.77;62.99;102632.50;4941557;28;20537;-50
2022/03/07 00:43:28;;;;;;;7.13;4.40;;;;;;;0.74;63.28;102632.78;4945475;28;20023;-51
2022/03/07 00:45:54;;;;;;;5.82;3.85;;;;;;;0.69;62.95;102633.19;4945066;28;20598;-53
2022/03/07 00:48:20;;;;;;;6.35;4.22;;;;;;;0.65;63.13;102623.88;4943654;28;20046;-50
2022/03/07 00:50:48;;;;;;;8.50;4.68;;;;;;;0.63;63.42;102627.63;4945554;28;20159;-49
2022/03/07 00:53:16;;;;;;;7.97;4.50;;;;;;;0.57;63.78;102634.28;4938620;29;20082;-50
2022/03/07 00:55:42;;;;;;;5.82;4.13;;;;;;;0.53;63.49;102630.25;4941273;29;20038;-51
2022/03/07 00:58:08;;;;;;;7.18;3.88;;;;;;;0.49;63.51;102629.69;4943980;29;20031;-51
2022/03/07 01:00:35;;;;;;;8.07;4.40;;;;;;;0.45;64.08;102619.53;4942549;29;20027;-53
2022/03/07 01:03:02;;;;;;;8.18;4.90;;;;;;;0.43;63.93;102619.69;4944614;29;20535;-50
2022/03/07 01:05:27;;;;;;;6.68;3.90;;;;;;;0.41;64.08;102618.16;4943621;29;20394;-50
2022/03/07 01:07:53;;;;;;;6.32;4.03;;;;;;;0.40;64.01;102619.13;4946560;28;20074;-49
2022/03/07 01:10:18;;;;;;;5.85;4.18;;;;;;;0.40;63.70;102624.41;4941125;28;20051;-50
2022/03/07 01:12:44;;;;;;;7.47;4.22;;;;;;;0.38;63.88;102615.78;4943509;28;20038;-49
2022/03/07 01:15:10;;;;;;;11.13;6.75;;;;;;;0.35;63.97;102616.88;4940680;28;20063;-53
2022/03/07 01:17:37;;;;;;;8.98;4.63;;;;;;;0.34;63.42;102624.91;4942482;29;20027;-50
2022/03/07 01:20:05;;;;;;;7.53;4.93;;;;;;;0.32;64.16;102624.22;4944494;28;20054;-53
2022/03/07 01:22:30;;;;;;;12.98;5.30;;;;;;;0.27;64.01;102614.09;4941724;29;20038;-48
2022/03/07 01:24:56;;;;;;;9.30;5.15;;;;;;;0.24;64.12;102617.00;4942470;28;20023;-49
2022/03/07 01:27:22;;;;;;;8.13;5.00;;;;;;;0.22;64.08;102618.94;4943163;28;20089;-54
2022/03/07 01:29:47;;;;;;;7.32;4.55;;;;;;;0.19;63.67;102612.16;4942192;29;20126;-49
2022/03/07 01:32:13;;;;;;;7.78;4.78;;;;;;;0.20;64.23;102613.81;4945070;28;20412;-51
2022/03/07 01:34:38;;;;;;;7.28;5.13;;;;;;;0.16;63.88;102604.47;4942873;29;20031;-52
2022/03/07 01:37:04;;;;;;;6.95;4.68;;;;;;;0.13;63.92;102607.38;4942343;28;20401;-53
2022/03/07 01:39:30;;;;;;;7.57;4.97;;;;;;;0.10;64.14;102612.09;4939435;28;20031;-53
2022/03/07 01:41:55;;;;;;;6.88;4.78;;;;;;;0.10;63.98;102609.47;4945393;28;20027;-49
2022/03/07 01:44:24;;;;;;;9.65;5.35;;;;;;;0.10;63.65;102607.66;4943882;28;20064;-51
2022/03/07 01:46:50;;;;;;;6.85;4.80;;;;;;;0.09;64.36;102610.44;4940108;28;20708;-50
2022/03/07 01:49:16;;;;;;;8.63;5.07;;;;;;;0.07;64.38;102607.94;4943731;28;20023;-51
2022/03/07 01:51:43;;;;;;;8.25;4.90;;;;;;;0.06;64.15;102602.81;4946016;28;20454;-52
2022/03/07 01:54:17;;;;;;;7.80;4.85;;;;;;;0.04;64.10;102597.66;4940702;29;20053;-49
2022/03/07 01:56:47;;;;;;;8.07;5.00;;;;;;;-0.01;63.95;102590.13;4945262;29;20101;-52
2022/03/07 01:59:15;;;;;;;9.13;4.82;;;;;;;-0.04;64.21;102590.41;4944401;29;20287;-52
2022/03/07 02:01:42;;;;;;;7.70;5.13;;;;;;;-0.05;64.64;102585.28;4941009;29;20027;-51
2022/03/07 02:04:08;;;;;;;7.78;4.93;;;;;;;-0.08;64.74;102578.47;4940946;28;20027;-51
2022/03/07 02:06:34;;;;;;;7.93;5.43;;;;;;;-0.11;64.60;102588.44;4940216;29;20405;-48
2022/03/07 02:08:59;;;;;;;8.98;5.63;;;;;;;-0.14;64.89;102578.19;4937806;28;20031;-51
2022/03/07 02:11:25;;;;;;;9.50;5.85;;;;;;;-0.15;64.58;102579.97;4941598;29;20023;-51
2022/03/07 02:13:51;;;;;;;7.75;4.82;;;;;;;-0.15;64.72;102579.16;4940595;28;20046;-52
2022/03/07 02:16:19;;;;;;;8.00;5.05;;;;;;;-0.16;64.87;102574.84;4940577;29;20378;-51
2022/03/07 02:18:45;;;;;;;8.13;5.60;;;;;;;-0.17;65.46;102578.44;4938949;29;20492;-50
2022/03/07 02:21:14;;;;;;;9.55;4.90;;;;;;;-0.20;64.88;102578.69;4940147;28;20456;-53
2022/03/07 02:23:40;;;;;;;7.75;5.07;;;;;;;-0.22;65.24;102570.09;4939406;29;20552;-53
2022/03/07 02:26:16;;;;;;;9.27;4.95;;;;;;;-0.28;65.16;102563.56;4938599;29;20031;-53
2022/03/07 02:28:43;;;;;;;6.60;4.93;;;;;;;-0.27;65.58;102564.41;4939513;29;20062;-51
2022/03/07 02:31:11;;;;;;;7.75;5.35;;;;;;;-0.30;65.61;102560.22;4939296;29;20435;-53
2022/03/07 02:33:37;;;;;;;10.73;5.20;;;;;;;-0.35;65.57;102554.53;4941303;29;20122;-48
2022/03/07 02:36:03;;;;;;;8.70;5.70;;;;;;;-0.37;65.83;102556.44;4941268;28;20735;-53
2022/03/07 02:38:29;;;;;;;9.10;6.25;;;;;;;-0.41;66.06;102562.94;4939813;29;20211;-49
2022/03/07 02:40:55;;;;;;;9.02;5.90;;;;;;;-0.41;66.63;102560.31;4940346;29;20027;-48
2022/03/07 02:43:21;;;;;;;10.07;6.40;;;;;;;-0.43;66.57;102560.44;4941956;29;20165;-51
2022/03/07 02:45:47;;;;;;;11.32;5.78;;;;;;;-0.44;66.19;102555.31;4938637;29;20031;-52
2022/03/07 02:48:13;;;;;;;10.15;6.57;;;;;;;-0.43;66.27;102557.81;4939375;28;20034;-50
2022/03/07 02:50:38;;;;;;;14.93;7.10;;;;;;;-0.44;66.90;102555.31;4941340;28;20039;-49
2022/03/07 02:53:04;;;;;;;12.85;7.07;;;;;;;-0.46;66.80;102551.97;4940459;28;20119;-50
2022/03/07 02:55:33;;;;;;;10.80;6.90;;;;;;;-0.50;66.75;102556.69;4939230;28;20038;-49
2022/03/07 02:57:59;;;;;;;12.93;6.47;;;;;;;-0.50;67.21;102550.59;4936950;29;20043;-48
2022/03/07 03:00:25;;;;;;;11.75;6.70;;;;;;;-0.51;67.11;102552.38;4939388;29;20031;-52
2022/03/07 03:02:51;;;;;;;11.50;6.57;;;;;;;-0.52;67.34;102555.97;4938264;29;20042;-51
2022/03/07 03:05:17;;;;;;;18.10;7.50;;;;;;;-0.53;67.45;102550.84;4937990;28;20023;-51
2022/03/07 03:07:42;;;;;;;11.43;6.97;;;;;;;-0.55;67.49;102561.47;4939072;28;20037;-51
2022/03/07 03:10:08;;;;;;;11.63;7.07;;;;;;;-0.57;67.86;102559.94;4936857;28;20039;-54
2022/03/07 03:12:33;;;;;;;18.25;7.78;;;;;;;-0.59;67.65;102562.72;4938261;28;20172;-51
2022/03/07 03:14:59;;;;;;;11.48;8.02;;;;;;;-0.61;68.24;102564.66;4938317;28;20110;-49
2022/03/07 03:17:26;;;;;;;12.55;7.07;;;;;;;-0.61;68.28;102567.28;4936457;29;20069;-48
2022/03/07 03:19:53;;;;;;;10.93;7.32;;;;;;;-0.61;68.46;102562.00;4936159;29;20046;-48
2022/03/07 03:22:19;;;;;;;10.93;7.05;;;;;;;-0.62;68.22;102565.63;4940496;28;20031;-48
2022/03/07 03:24:46;;;;;;;10.95;6.68;;;;;;;-0.62;68.00;102553.28;4938881;28;20028;-47
2022/03/07 03:27:11;;;;;;;11.43;7.38;;;;;;;-0.63;67.93;102551.63;4939316;29;20027;-47
2022/03/07 03:29:37;;;;;;;13.07;7.90;;;;;;;-0.64;68.65;102549.97;4941898;28;20027;-47
2022/03/07 03:32:03;;;;;;;13.63;7.75;;;;;;;-0.64;68.56;102551.75;4937222;28;20039;-47
2022/03/07 03:34:28;;;;;;;12.52;8.32;;;;;;;-0.65;68.23;102557.97;4936858;28;20032;-48
2022/03/07 03:36:54;;;;;;;14.40;7.65;;;;;;;-0.67;68.70;102549.38;4938446;29;20054;-50
2022/03/07 03:39:19;;;;;;;11.88;7.32;;;;;;;-0.68;69.19;102560.88;4935051;28;20074;-47
2022/03/07 03:41:45;;;;;;;11.32;7.55;;;;;;;-0.70;68.74;102558.38;4936605;28;20412;-48
2022/03/07 03:44:10;;;;;;;13.43;7.55;;;;;;;-0.69;68.83;102559.22;4941807;28;20058;-48
2022/03/07 03:46:37;;;;;;;16.92;8.07;;;;;;;-0.69;68.92;102559.22;4935708;28;20191;-48
2022/03/07 03:49:03;;;;;;;15.38;7.88;;;;;;;-0.68;69.28;102563.50;4936602;28;20027;-48
2022/03/07 03:51:29;;;;;;;15.05;8.50;;;;;;;-0.69;69.41;102567.13;4936112;29;20553;-47
2022/03/07 03:53:55;;;;;;;14.20;8.10;;;;;;;-0.69;69.13;102565.31;4935655;28;20127;-48
2022/03/07 03:56:21;;;;;;;13.00;7.82;;;;;;;-0.70;69.19;102571.53;4938382;29;20366;-48
2022/03/07 03:58:46;;;;;;;16.23;8.23;;;;;;;-0.70;69.22;102570.72;4939463;29;20039;-47
2022/03/07 04:01:12;;;;;;;13.63;7.45;;;;;;;-0.71;69.91;102569.03;4938976;29;20485;-50
2022/03/07 04:03:37;;;;;;;15.02;8.27;;;;;;;-0.71;69.52;102569.03;4936971;28;20721;-47
2022/03/07 04:06:06;;;;;;;12.60;8.30;;;;;;;-0.72;69.96;102564.72;4940671;29;20015;-47
2022/03/07 04:08:43;;;;;;;13.52;8.95;;;;;;;-0.76;70.01;102556.25;4940553;29;20334;-49
2022/03/07 04:11:09;;;;;;;12.98;7.60;;;;;;;-0.75;69.65;102557.09;4939896;29;20073;-47
2022/03/07 04:13:35;;;;;;;14.52;8.15;;;;;;;-0.75;70.07;102554.44;4941385;29;20039;-50
2022/03/07 04:16:00;;;;;;;13.73;8.15;;;;;;;-0.77;70.33;102559.00;4939280;29;20035;-48
2022/03/07 04:18:26;;;;;;;13.02;8.10;;;;;;;-0.77;69.80;102564.28;4939771;29;20328;-48
2022/03/07 04:20:52;;;;;;;11.70;8.15;;;;;;;-0.77;70.08;102559.00;4939966;29;20090;-47
2022/03/07 04:23:20;;;;;;;12.80;8.18;;;;;;;-0.77;70.42;102569.53;4941469;28;20489;-48
2022/03/07 04:25:48;;;;;;;14.55;8.40;;;;;;;-0.78;70.48;102562.59;4938949;28;20031;-48
2022/03/07 04:28:13;;;;;;;12.77;7.85;;;;;;;-0.78;70.29;102567.88;4938651;29;20023;-48
2022/03/07 04:30:39;;;;;;;13.07;8.10;;;;;;;-0.79;71.00;102560.94;4939720;29;20407;-48
2022/03/07 04:33:05;;;;;;;16.23;9.65;;;;;;;-0.80;71.00;102562.75;4934499;28;20038;-47
2022/03/07 04:35:31;;;;;;;15.10;9.32;;;;;;;-0.81;71.00;102568.13;4934494;29;20070;-48
2022/03/07 04:37:56;;;;;;;16.55;8.70;;;;;;;-0.81;70.79;102563.72;4938362;28;20479;-47
2022/03/07 04:40:22;;;;;;;18.77;9.32;;;;;;;-0.80;71.12;102573.28;4941036;28;20033;-48
2022/03/07 04:42:47;;;;;;;17.58;8.45;;;;;;;-0.79;71.02;102572.31;4940026;28;20031;-48
2022/03/07 04:45:13;;;;;;;13.75;9.13;;;;;;;-0.79;71.00;102566.22;4941558;28;20034;-49
2022/03/07 04:47:40;;;;;;;14.45;9.35;;;;;;;-0.79;71.04;102576.72;4938154;28;20019;-48
2022/03/07 04:50:08;;;;;;;18.70;9.73;;;;;;;-0.80;70.83;102572.44;4942695;28;20035;-47
2022/03/07 04:52:34;;;;;;;14.25;8.90;;;;;;;-0.80;71.12;102575.06;4942381;28;21700;-48
2022/03/07 04:54:59;;;;;;;17.25;9.70;;;;;;;-0.80;70.61;102573.28;4939498;29;20035;-48
2022/03/07 04:57:25;;;;;;;14.05;8.60;;;;;;;-0.79;70.57;102576.72;4944147;28;20030;-49
2022/03/07 04:59:50;;;;;;;15.75;8.05;;;;;;;-0.79;70.30;102577.56;4943179;28;20275;-50
2022/03/07 05:02:16;;;;;;;15.13;8.05;;;;;;;-0.80;70.00;102573.28;4939651;28;20422;-50
2022/03/07 05:04:41;;;;;;;10.18;7.10;;;;;;;-0.83;70.01;102570.06;4941070;28;20031;-48
2022/03/07 05:07:07;;;;;;;13.68;7.55;;;;;;;-0.85;69.95;102572.81;4941314;28;20031;-48
2022/03/07 05:09:34;;;;;;;12.90;7.30;;;;;;;-0.84;70.07;102571.88;4942883;29;20448;-50
2022/03/07 05:11:59;;;;;;;11.25;7.00;;;;;;;-0.84;69.71;102577.13;4942105;28;20065;-47
2022/03/07 05:14:25;;;;;;;12.02;7.38;;;;;;;-0.84;69.37;102568.41;4942141;28;20015;-47
2022/03/07 05:16:51;;;;;;;12.60;7.40;;;;;;;-0.84;69.57;102571.03;4941460;28;20067;-49
2022/03/07 05:19:17;;;;;;;11.88;7.45;;;;;;;-0.86;69.69;102575.59;4941348;28;20027;-48
2022/03/07 05:21:42;;;;;;;15.30;7.57;;;;;;;-0.88;69.68;102573.09;4944425;28;20046;-47
2022/03/07 05:24:09;;;;;;;16.23;8.02;;;;;;;-0.88;69.17;102578.34;4944427;28;20037;-48
2022/03/07 05:26:35;;;;;;;10.30;6.90;;;;;;;-0.89;68.78;102579.31;4943587;29;20031;-48
2022/03/07 05:29:00;;;;;;;13.52;7.78;;;;;;;-0.90;69.10;102575.00;4944629;28;20267;-48
2022/03/07 05:31:26;;;;;;;13.73;7.78;;;;;;;-0.91;68.90;102582.06;4942553;29;20126;-46
2022/03/07 05:33:52;;;;;;;15.27;7.72;;;;;;;-0.92;69.10;102575.13;4943579;28;20038;-47
2022/03/07 05:36:17;;;;;;;11.88;7.25;;;;;;;-0.93;69.08;102583.97;4944135;28;20357;-48
2022/03/07 05:38:43;;;;;;;13.20;7.53;;;;;;;-0.95;68.87;102583.28;4940611;29;20037;-48
2022/03/07 05:41:08;;;;;;;17.35;7.70;;;;;;;-0.96;68.58;102573.72;4942172;28;20171;-48
2022/03/07 05:43:34;;;;;;;14.88;7.82;;;;;;;-0.97;68.62;102576.47;4945214;28;20058;-48
2022/03/07 05:46:00;;;;;;;13.82;8.15;;;;;;;-1.01;69.03;102577.69;4938186;28;20027;-48
2022/03/07 05:48:26;;;;;;;15.60;7.95;;;;;;;-1.09;68.74;102580.94;4944848;28;20075;-48
2022/03/07 05:50:51;;;;;;;12.75;7.18;;;;;;;-1.09;69.01;102586.22;4942726;29;20041;-47
2022/03/07 05:53:21;;;;;;;14.00;7.63;;;;;;;-1.09;69.06;102580.13;4942215;29;20035;-48
2022/03/07 05:55:48;;;;;;;19.13;8.40;;;;;;;-1.11;68.56;102580.25;4940676;29;20042;-50
2022/03/07 05:58:14;;;;;;;11.63;7.65;;;;;;;-1.11;68.44;102585.50;4940620;29;20469;-47
2022/03/07 06:00:39;;;;;;;13.88;7.88;;;;;;;-1.08;68.78;102584.41;4939145;28;20027;-48
2022/03/07 06:03:05;;;;;;;12.93;8.00;;;;;;;-1.07;68.36;102580.84;4938480;28;20027;-47
2022/03/07 06:05:31;;;;;;;14.77;8.43;;;;;;;-1.06;68.87;102580.72;4941872;29;20035;-48
2022/03/07 06:07:57;;;;;;;14.98;8.30;;;;;;;-1.03;68.58;102585.72;4944413;28;20027;-48
2022/03/07 06:10:23;;;;;;;11.13;7.57;;;;;;;-1.00;68.91;102589.88;4944746;28;20019;-46
2022/03/07 06:12:48;;;;;;;12.18;7.78;;;;;;;-0.96;68.56;102583.41;4942477;29;20023;-47
2022/03/07 06:15:14;;;;;;;14.75;8.18;;;;;;;-0.94;68.37;102577.06;4944789;29;20034;-47
2022/03/07 06:17:50;;;;;;;11.02;7.43;;;;;;;-0.91;68.49;102583.84;4943297;29;20023;-47
2022/03/07 06:20:15;;;;;;;13.93;7.70;;;;;;;-0.84;68.63;102587.66;4943056;28;20597;-48
2022/03/07 06:22:41;;;;;;;11.85;8.10;;;;;;;-0.78;68.14;102588.94;4942135;28;20118;-47
2022/03/07 06:25:07;;;;;;;11.77;7.53;;;;;;;-0.74;67.82;102593.81;4944388;29;20062;-47
2022/03/07 06:27:32;;;;;;;14.73;8.18;;;;;;;-0.68;68.10;102597.72;4942791;28;20114;-48
2022/03/07 06:29:58;;;;;;;12.23;7.88;;;;;;;-0.65;68.26;102597.47;4942475;28;20066;-48
2022/03/07 06:32:24;;;;;;;11.77;8.18;;;;;;;-0.60;68.28;102595.28;4943137;28;20035;-48
2022/03/07 06:34:50;;;;;;;14.13;7.82;;;;;;;-0.54;68.07;102586.84;4942866;28;20121;-47
2022/03/07 06:37:16;;;;;;;18.00;8.77;;;;;;;-0.51;68.40;102586.63;4941050;28;20027;-47
2022/03/07 06:39:41;;;;;;;12.90;8.27;;;;;;;-0.46;68.13;102594.94;4940340;28;20058;-48
2022/03/07 06:42:07;;;;;;;13.20;7.78;;;;;;;-0.40;68.02;102586.50;4941521;29;20743;-48
2022/03/07 06:44:33;;;;;;;15.20;8.50;;;;;;;-0.33;68.33;102584.22;4940490;28;20054;-47
2022/03/07 06:46:59;;;;;;;15.60;8.35;;;;;;;-0.25;68.27;102591.44;4939638;28;20026;-47
2022/03/07 06:49:25;;;;;;;13.10;8.48;;;;;;;-0.19;68.42;102596.16;4942295;28;20035;-48
2022/03/07 06:51:50;;;;;;;16.27;8.38;;;;;;;-0.12;68.45;102592.06;4939156;28;20556;-49
2022/03/07 06:54:16;;;;;;;16.33;9.50;;;;;;;-0.06;68.37;102602.88;4940817;28;20034;-48
2022/03/07 06:56:42;;;;;;;14.57;8.70;;;;;;;0.00;68.69;102620.00;4938308;28;20034;-50
2022/03/07 06:59:07;;;;;;;17.05;9.82;;;;;;;0.06;68.47;102614.16;4940050;28;20023;-50
2022/03/07 07:01:33;;;;;;;19.75;10.27;;;;;;;0.11;69.00;102613.75;4936023;28;20075;-47
2022/03/07 07:03:58;;;;;;;20.73;10.77;;;;;;;0.12;68.81;102621.53;4938849;28;20063;-48
2022/03/07 07:06:24;;;;;;;23.42;11.43;;;;;;;0.14;69.26;102624.03;4940373;28;20101;-48
2022/03/07 07:08:49;;;;;;;21.13;11.88;;;;;;;0.15;69.82;102625.69;4940991;29;20452;-47
2022/03/07 07:11:15;;;;;;;19.15;10.63;;;;;;;0.12;70.13;102628.59;4941705;28;20039;-47
2022/03/07 07:13:41;;;;;;;21.95;11.43;;;;;;;0.10;70.27;102622.66;4938951;28;20023;-47
2022/03/07 07:16:06;;;;;;;25.65;12.13;;;;;;;0.12;71.05;102632.09;4937566;28;20035;-46
2022/03/07 07:18:32;;;;;;;19.25;10.30;;;;;;;0.15;70.87;102625.69;4938278;28;20106;-47
2022/03/07 07:20:57;;;;;;;23.10;11.20;;;;;;;0.19;70.82;102629.75;4942009;28;20035;-48
2022/03/07 07:23:23;;;;;;;19.77;11.05;;;;;;;0.18;71.15;102639.47;4937370;28;20031;-48
2022/03/07 07:25:49;;;;;;;19.70;10.23;;;;;;;0.18;71.83;102636.84;4937121;29;20159;-47
2022/03/07 07:28:14;;;;;;;19.92;10.65;;;;;;;0.13;72.38;102639.03;4942442;28;20041;-48
2022/03/07 07:30:40;;;;;;;22.65;10.88;;;;;;;0.15;72.43;102646.78;4937616;29;20034;-48
2022/03/07 07:33:06;;;;;;;19.98;10.90;;;;;;;0.17;72.33;102634.31;4938617;28;20027;-47
2022/03/07 07:35:34;;;;;;;19.83;11.23;;;;;;;0.19;73.01;102632.41;4941610;28;20485;-47
2022/03/07 07:38:00;;;;;;;21.63;11.15;;;;;;;0.20;72.69;102636.69;4941602;29;20038;-47
2022/03/07 07:40:27;;;;;;;19.85;10.32;;;;;;;0.23;72.99;102636.44;4941603;28;20031;-47
2022/03/07 07:42:53;;;;;;;18.05;10.05;;;;;;;0.25;73.29;102640.59;4935793;28;20035;-48
2022/03/07 07:45:18;;;;;;;21.00;9.90;;;;;;;0.31;72.75;102652.41;4937588;28;20023;-48
2022/03/07 07:47:44;;;;;;;20.40;10.15;;;;;;;0.36;73.31;102654.63;4940021;29;20051;-47
2022/03/07 07:50:10;;;;;;;20.73;9.85;;;;;;;0.39;72.71;102654.38;4936262;28;20063;-50
2022/03/07 07:52:36;;;;;;;15.73;10.00;;;;;;;0.43;72.89;102651.34;4939340;29;20031;-47
2022/03/07 07:55:04;;;;;;;21.38;11.15;;;;;;;0.46;73.42;102647.59;4939911;28;20225;-47
2022/03/07 07:57:30;;;;;;;19.05;9.85;;;;;;;0.49;72.81;102645.50;4940957;28;20039;-49
2022/03/07 07:59:56;;;;;;;19.75;10.23;;;;;;;0.53;73.32;102646.06;4939082;28;20102;-47
2022/03/07 08:02:22;;;;;;;17.15;9.30;;;;;;;0.55;73.34;102649.44;4940408;29;20109;-47
2022/03/07 08:04:47;;;;;;;18.42;9.35;;;;;;;0.58;73.66;102646.50;4940880;28;20379;-47
2022/03/07 08:07:13;;;;;;;15.35;9.05;;;;;;;0.61;73.45;102646.22;4939268;29;20233;-49
2022/03/07 08:09:38;;;;;;;19.58;9.88;;;;;;;0.65;73.44;102639.72;4942585;28;20031;-47
2022/03/07 08:12:05;;;;;;;15.90;9.23;;;;;;;0.69;73.55;102634.97;4939646;29;20046;-47
2022/03/07 08:14:30;;;;;;;17.27;9.57;;;;;;;0.73;73.74;102631.97;4940231;28;20070;-49
2022/03/07 08:16:56;;;;;;;20.13;8.77;;;;;;;0.83;73.61;102634.59;4939318;29;20115;-47
2022/03/07 08:19:21;;;;;;;18.55;9.35;;;;;;;0.86;73.19;102635.13;4940930;29;20457;-48
2022/03/07 08:21:47;;;;;;;18.60;9.88;;;;;;;0.88;73.45;102640.28;4940152;29;20039;-48
2022/03/07 08:24:13;;;;;;;18.88;9.38;;;;;;;0.93;73.53;102639.88;4942243;28;20031;-48
2022/03/07 08:26:39;;;;;;;17.42;9.10;;;;;;;0.99;73.59;102642.78;4939206;28;20029;-48
2022/03/07 08:29:04;;;;;;;19.85;10.13;;;;;;;1.03;73.48;102645.97;4942122;29;20144;-48
2022/03/07 08:31:30;;;;;;;53.22;22.10;;;;;;;1.09;73.06;102635.72;4942534;28;20575;-48
2022/03/07 08:33:56;;;;;;;39.58;17.15;;;;;;;1.13;73.27;102638.91;4939028;29;20034;-47
2022/03/07 08:36:21;;;;;;;34.15;17.45;;;;;;;1.14;73.53;102636.13;4945068;29;20393;-47
2022/03/07 08:38:47;;;;;;;34.75;18.63;;;;;;;1.20;73.27;102640.00;4944891;28;20031;-48
2022/03/07 08:41:12;;;;;;;28.65;13.90;;;;;;;1.27;73.08;102643.75;4943805;28;20058;-46
2022/03/07 08:43:39;;;;;;;23.10;12.02;;;;;;;1.31;73.15;102644.31;4942147;29;20121;-47
2022/03/07 08:46:04;;;;;;;22.05;11.15;;;;;;;1.38;73.47;102653.31;4942000;29;20027;-47
2022/03/07 08:48:30;;;;;;;20.00;10.45;;;;;;;1.43;73.40;102644.00;4943016;28;20031;-46
2022/03/07 08:50:56;;;;;;;19.67;10.90;;;;;;;1.50;73.16;102639.00;4940308;29;20359;-47
2022/03/07 08:53:21;;;;;;;20.55;10.20;;;;;;;1.57;72.78;102647.19;4944438;28;20043;-47
2022/03/07 08:55:47;;;;;;;16.70;9.50;;;;;;;1.72;72.97;102651.03;4940174;28;20027;-48
2022/03/07 08:58:13;;;;;;;18.33;9.65;;;;;;;1.88;72.80;102645.16;4938968;29;20027;-49
2022/03/07 09:00:38;;;;;;;20.00;9.65;;;;;;;2.01;73.03;102641.22;4939801;29;20027;-47
2022/03/07 09:03:04;;;;;;;14.73;8.25;;;;;;;2.16;72.61;102638.94;4941543;28;20481;-48
2022/03/07 09:05:30;;;;;;;16.85;8.85;;;;;;;2.31;72.54;102636.59;4940251;29;20279;-47
2022/03/07 09:07:56;;;;;;;18.33;8.82;;;;;;;2.47;72.58;102636.78;4941069;28;20035;-49
2022/03/07 09:10:21;;;;;;;16.60;8.80;;;;;;;2.65;72.65;102634.16;4943148;29;20023;-50
2022/03/07 09:12:48;;;;;;;15.07;8.57;;;;;;;2.82;72.31;102638.63;4940711;29;20038;-47
2022/03/07 09:15:14;;;;;;;15.38;7.65;;;;;;;2.99;71.96;102637.81;4942103;28;20031;-47
2022/03/07 09:17:40;;;;;;;13.85;7.63;;;;;;;3.13;71.97;102627.66;4936251;29;20593;-47
2022/03/07 09:20:07;;;;;;;15.73;8.57;;;;;;;3.24;71.56;102630.91;4939194;28;20037;-48
2022/03/07 09:22:33;;;;;;;15.65;8.23;;;;;;;3.33;71.53;102627.34;4937766;29;20123;-47
2022/03/07 09:24:59;;;;;;;13.82;7.38;;;;;;;3.44;71.53;102620.13;4936022;29;20062;-48
2022/03/07 09:27:24;;;;;;;12.40;7.70;;;;;;;3.62;71.27;102623.56;4937691;29;20059;-48
2022/03/07 09:29:50;;;;;;;13.98;7.60;;;;;;;3.73;70.91;102619.78;4937265;29;20039;-48
2022/03/07 09:32:16;;;;;;;13.68;7.60;;;;;;;3.93;70.57;102627.34;4943055;29;20184;-49
2022/03/07 09:34:41;;;;;;;17.27;7.93;;;;;;;4.09;70.44;102623.94;4939136;28;20090;-47
2022/03/07 09:37:07;;;;;;;15.02;7.63;;;;;;;4.25;70.05;102626.69;4939972;28;20125;-48
2022/03/07 09:39:33;;;;;;;13.27;6.95;;;;;;;4.39;69.79;102627.88;4935797;29;20059;-47
2022/03/07 09:41:59;;;;;;;14.00;6.88;;;;;;;4.51;69.16;102626.59;4940977;29;20039;-48
2022/03/07 09:44:27;;;;;;;12.55;6.90;;;;;;;4.63;69.04;102626.28;4943319;28;20031;-47
2022/03/07 09:46:55;;;;;;;13.32;7.07;;;;;;;4.78;68.81;102614.03;4940107;29;20027;-51
2022/03/07 09:49:21;;;;;;;13.05;6.32;;;;;;;4.90;68.39;102619.84;4939062;29;20271;-48
2022/03/07 09:51:46;;;;;;;13.00;6.75;;;;;;;4.97;68.14;102623.50;4936413;29;20066;-48
2022/03/07 09:54:12;;;;;;;10.52;6.43;;;;;;;5.07;67.76;102611.72;4941998;28;20050;-48
2022/03/07 09:56:38;;;;;;;12.30;7.13;;;;;;;5.19;67.74;102608.72;4939132;28;20031;-48
2022/03/07 09:59:04;;;;;;;11.82;6.88;;;;;;;5.23;67.08;102616.22;4938953;28;20031;-48
2022/03/07 10:01:29;;;;;;;13.75;7.20;;;;;;;5.30;66.68;102621.69;4940338;29;20039;-48
2022/03/07 10:04:12;;;;;;;12.18;6.70;;;;;;;5.36;66.19;102610.38;4941357;28;20086;-48
2022/03/07 10:06:47;;;;;;;12.10;7.53;;;;;;;5.51;66.08;102608.69;4938405;29;20019;-49
2022/03/07 10:09:19;;;;;;;10.65;5.95;;;;;;;5.58;65.51;102624.81;4943040;28;20038;-49
2022/03/07 10:11:54;;;;;;;11.50;5.97;;;;;;;5.60;65.68;102606.88;4945262;29;20042;-48
2022/03/07 10:14:30;;;;;;;9.15;5.75;;;;;;;5.71;64.99;102617.13;4938614;28;20043;-49
2022/03/07 10:16:56;;;;;;;11.93;6.85;;;;;;;5.91;65.22;102617.59;4941186;28;20187;-49
2022/03/07 10:19:21;;;;;;;10.77;6.50;;;;;;;6.02;64.69;102611.91;4943791;29;20035;-48
2022/03/07 10:21:50;;;;;;;9.65;6.05;;;;;;;6.08;64.06;102613.88;4937828;29;20050;-49
2022/03/07 10:24:17;;;;;;;10.00;6.57;;;;;;;6.15;63.68;102614.84;4939167;29;20036;-48
2022/03/07 10:26:43;;;;;;;11.20;6.20;;;;;;;6.28;63.42;102608.94;4941916;28;20019;-48
2022/03/07 10:29:09;;;;;;;10.55;5.68;;;;;;;6.36;63.40;102614.25;4946605;28;20264;-50
2022/03/07 10:31:37;;;;;;;8.40;5.30;;;;;;;6.47;63.01;102621.03;4943625;28;20027;-48
2022/03/07 10:34:11;;;;;;;10.88;6.00;;;;;;;6.53;62.11;102617.66;4945863;28;20031;-48
2022/03/07 10:36:39;;;;;;;10.18;5.70;;;;;;;6.60;62.20;102610.59;4942960;28;20019;-49
2022/03/07 10:39:07;;;;;;;8.23;5.30;;;;;;;6.69;61.90;102603.41;4945325;28;20031;-48
2022/03/07 10:41:38;;;;;;;9.02;5.15;;;;;;;6.81;62.23;102607.28;4941183;28;20552;-48
2022/03/07 10:44:06;;;;;;;10.27;5.50;;;;;;;6.95;61.45;102610.03;4944912;28;20031;-49
2022/03/07 10:46:32;;;;;;;8.52;5.20;;;;;;;7.07;61.30;102604.28;4943324;28;20084;-47
2022/03/07 10:48:59;;;;;;;9.57;4.95;;;;;;;7.13;60.36;102607.03;4945227;28;20031;-49
2022/03/07 10:51:25;;;;;;;13.45;5.90;;;;;;;7.21;60.17;102617.66;4944743;28;20223;-49
2022/03/07 10:53:52;;;;;;;8.48;4.90;;;;;;;7.28;59.79;102615.09;4942781;28;20059;-49
2022/03/07 10:56:21;;;;;;;8.23;4.72;;;;;;;7.37;59.88;102611.34;4942561;28;20027;-48
2022/03/07 10:58:49;;;;;;;11.05;4.70;;;;;;;7.49;59.14;102609.88;4944203;29;20031;-48
2022/03/07 11:01:15;;;;;;;9.27;5.25;;;;;;;7.66;58.91;102613.19;4941451;29;20042;-48
2022/03/07 11:03:40;;;;;;;9.60;5.53;;;;;;;7.82;58.77;102607.69;4945788;28;20126;-49
2022/03/07 11:06:06;;;;;;;7.00;4.22;;;;;;;7.92;57.73;102603.94;4946889;28;20569;-49
2022/03/07 11:08:32;;;;;;;9.32;5.20;;;;;;;7.93;57.35;102609.09;4941940;28;20031;-47
2022/03/07 11:11:00;;;;;;;9.40;4.63;;;;;;;7.98;57.36;102595.16;4944592;28;20027;-49
2022/03/07 11:13:29;;;;;;;8.23;3.85;;;;;;;8.09;56.60;102592.88;4942832;28;20051;-49
2022/03/07 11:15:57;;;;;;;5.75;4.10;;;;;;;8.23;57.14;102593.00;4943228;29;20263;-48
2022/03/07 11:18:23;;;;;;;7.10;4.47;;;;;;;8.40;56.93;102591.78;4943728;29;20122;-48